Airfield :
LOGIN :

Register | Disclaimer

   EN    FR    IT 

 










Legend :    VFR   Marginal VFR   IFR   Intensive IFR   Very Intensive IFR
Visi :
Ceiling :
>= 8 km
>= 3000ft
5 to 8 km
1000 to 3000 ft
1500m to 5 km
500 to 1000 ft
800 to 1500m
200 to 500 ft
< 800m
< 200 ft
Symbols :   Thunderstorms  Fog  Heavy snow  Heavy precipitations  Wind > 20 kt
SIGMETs :     Misc.  Thunderstorms  Icing  Turbulence  Mountain Waves  Volcanic Ashes






- Airport Elevation : 1504 ft
- IATA code : PNA


LEPP - Noain Pamplona

CURRENT METAR :
  • 150600Z 13004KT 090V160 9999 FEW059 08/05 Q1017

EXPIRED METARs :
  • 150530Z 00000KT 9999 FEW059 08/06 Q1017
  • 150500Z 25003KT 190V300 9999 FEW040 08/06 Q1016
  • 150430Z 00000KT 9999 FEW055 08/06 Q1016
  • 150400Z 22003KT 170V280 9999 FEW015 SCT055 09/06 Q1016
  • 150330Z 22003KT 160V290 9999 FEW009 SCT025 BKN052 09/07 Q1016 RERA

TAF TAF LEPP
Valid from the 15 at 03:00 until the 16 at 03:00 UTC


150200Z 1503/1603 20009KT 9999 SCT030 TX18/1514Z TN06/1506Z
PROB30
TEMPO 1503/1506 4500 -RADZ BKN014



MET'MAP, your aeronautical weather chart ! - Copyright ORBIFLY December 2007 - Disclaimer

ORBIFLY MET'MAP TEAM :

Programming & Development : Alexandra Zaïnal
Concept & Development : Baudouin d'Aumeries
Co-Development & Prog : Marc-Olivier Méhu
Technical & hardware support : Manuel Goepfert

Contact : metmap@orbifly.com




SOURCES & CREDITS :

   NOAA